sensor_id;sensor_type;location;lat;lon;timestamp;temperature;humidity
7002;DHT22;3541;53.230;10.518;2023-04-09T00:00:38;8.50;99.90
7002;DHT22;3541;53.230;10.518;2023-04-09T00:03:05;8.50;99.90
7002;DHT22;3541;53.230;10.518;2023-04-09T00:05:32;8.50;99.90
7002;DHT22;3541;53.230;10.518;2023-04-09T00:08:00;8.50;99.90
7002;DHT22;3541;53.230;10.518;2023-04-09T00:10:26;8.50;99.90
7002;DHT22;3541;53.230;10.518;2023-04-09T00:12:53;8.50;99.90
7002;DHT22;3541;53.230;10.518;2023-04-09T00:15:20;8.50;99.90
7002;DHT22;3541;53.230;10.518;2023-04-09T00:17:46;8.50;99.90
7002;DHT22;3541;53.230;10.518;2023-04-09T00:20:13;8.50;99.90
7002;DHT22;3541;53.230;10.518;2023-04-09T00:22:40;8.50;99.90
7002;DHT22;3541;53.230;10.518;2023-04-09T00:25:08;8.40;99.90
7002;DHT22;3541;53.230;10.518;2023-04-09T00:27:35;8.40;99.90
7002;DHT22;3541;53.230;10.518;2023-04-09T00:30:01;8.40;99.90
7002;DHT22;3541;53.230;10.518;2023-04-09T00:32:28;8.40;99.90
7002;DHT22;3541;53.230;10.518;2023-04-09T00:34:54;8.40;99.90
7002;DHT22;3541;53.230;10.518;2023-04-09T00:37:21;8.40;99.90
7002;DHT22;3541;53.230;10.518;2023-04-09T00:39:47;8.40;99.90
7002;DHT22;3541;53.230;10.518;2023-04-09T00:42:15;8.40;99.90
7002;DHT22;3541;53.230;10.518;2023-04-09T00:44:42;8.40;99.90
7002;DHT22;3541;53.230;10.518;2023-04-09T00:47:08;8.30;99.90
7002;DHT22;3541;53.230;10.518;2023-04-09T00:49:35;8.30;99.90
7002;DHT22;3541;53.230;10.518;2023-04-09T00:52:02;8.30;99.90
7002;DHT22;3541;53.230;10.518;2023-04-09T00:54:28;8.30;99.90
7002;DHT22;3541;53.230;10.518;2023-04-09T00:56:56;8.30;99.90
7002;DHT22;3541;53.230;10.518;2023-04-09T00:59:25;8.30;99.90
7002;DHT22;3541;53.230;10.518;2023-04-09T01:01:51;8.40;99.90
7002;DHT22;3541;53.230;10.518;2023-04-09T01:04:18;8.40;99.90
7002;DHT22;3541;53.230;10.518;2023-04-09T01:06:50;8.30;99.90
7002;DHT22;3541;53.230;10.518;2023-04-09T01:09:23;8.30;99.90
7002;DHT22;3541;53.230;10.518;2023-04-09T01:11:58;8.30;99.90
7002;DHT22;3541;53.230;10.518;2023-04-09T01:14:44;8.30;99.90
7002;DHT22;3541;53.230;10.518;2023-04-09T01:17:16;8.30;99.90
7002;DHT22;3541;53.230;10.518;2023-04-09T01:19:50;8.30;99.90
7002;DHT22;3541;53.230;10.518;2023-04-09T01:22:30;8.40;99.90
7002;DHT22;3541;53.230;10.518;2023-04-09T01:25:06;8.40;99.90
7002;DHT22;3541;53.230;10.518;2023-04-09T01:27:42;8.40;99.90
7002;DHT22;3541;53.230;10.518;2023-04-09T01:30:14;8.40;99.90
7002;DHT22;3541;53.230;10.518;2023-04-09T01:32:42;8.40;99.90
7002;DHT22;3541;53.230;10.518;2023-04-09T01:35:09;8.40;99.90
7002;DHT22;3541;53.230;10.518;2023-04-09T01:37:36;8.40;99.90
7002;DHT22;3541;53.230;10.518;2023-04-09T01:40:05;8.40;99.90
7002;DHT22;3541;53.230;10.518;2023-04-09T01:42:32;8.40;99.90
7002;DHT22;3541;53.230;10.518;2023-04-09T01:44:59;8.40;99.90
7002;DHT22;3541;53.230;10.518;2023-04-09T01:47:28;8.30;99.90
7002;DHT22;3541;53.230;10.518;2023-04-09T01:49:55;8.30;99.90
7002;DHT22;3541;53.230;10.518;2023-04-09T01:52:21;8.30;99.90
7002;DHT22;3541;53.230;10.518;2023-04-09T01:54:48;8.20;99.90
7002;DHT22;3541;53.230;10.518;2023-04-09T01:57:15;8.20;99.90
7002;DHT22;3541;53.230;10.518;2023-04-09T01:59:41;8.30;99.90
7002;DHT22;3541;53.230;10.518;2023-04-09T02:02:10;8.20;99.90
7002;DHT22;3541;53.230;10.518;2023-04-09T02:04:41;8.20;99.90
7002;DHT22;3541;53.230;10.518;2023-04-09T02:07:11;8.20;99.90
7002;DHT22;3541;53.230;10.518;2023-04-09T02:09:40;8.20;99.90
7002;DHT22;3541;53.230;10.518;2023-04-09T02:12:12;8.30;99.90
7002;DHT22;3541;53.230;10.518;2023-04-09T02:14:40;8.20;99.90
7002;DHT22;3541;53.230;10.518;2023-04-09T02:17:08;8.20;99.90
7002;DHT22;3541;53.230;10.518;2023-04-09T02:19:40;8.20;99.90
7002;DHT22;3541;53.230;10.518;2023-04-09T02:22:06;8.20;99.90
7002;DHT22;3541;53.230;10.518;2023-04-09T02:24:33;8.20;99.90
7002;DHT22;3541;53.230;10.518;2023-04-09T02:27:00;8.20;99.90
7002;DHT22;3541;53.230;10.518;2023-04-09T02:29:27;8.20;99.90
7002;DHT22;3541;53.230;10.518;2023-04-09T02:31:54;8.20;99.90
7002;DHT22;3541;53.230;10.518;2023-04-09T02:34:21;8.20;99.90
7002;DHT22;3541;53.230;10.518;2023-04-09T02:36:49;8.20;99.90
7002;DHT22;3541;53.230;10.518;2023-04-09T02:39:16;8.20;99.90
7002;DHT22;3541;53.230;10.518;2023-04-09T02:41:42;8.20;99.90
7002;DHT22;3541;53.230;10.518;2023-04-09T02:44:09;8.10;99.90
7002;DHT22;3541;53.230;10.518;2023-04-09T02:46:36;8.10;99.90
7002;DHT22;3541;53.230;10.518;2023-04-09T02:49:03;8.10;99.90
7002;DHT22;3541;53.230;10.518;2023-04-09T02:51:30;8.10;99.90
7002;DHT22;3541;53.230;10.518;2023-04-09T02:53:58;8.10;99.90
7002;DHT22;3541;53.230;10.518;2023-04-09T02:56:24;8.10;99.90
7002;DHT22;3541;53.230;10.518;2023-04-09T02:58:51;8.10;99.90
7002;DHT22;3541;53.230;10.518;2023-04-09T03:01:18;8.10;99.90
7002;DHT22;3541;53.230;10.518;2023-04-09T03:03:45;8.10;99.90
7002;DHT22;3541;53.230;10.518;2023-04-09T03:06:12;8.20;99.90
7002;DHT22;3541;53.230;10.518;2023-04-09T03:08:39;8.10;99.90
7002;DHT22;3541;53.230;10.518;2023-04-09T03:11:06;8.10;99.90
7002;DHT22;3541;53.230;10.518;2023-04-09T03:13:33;8.10;99.90
7002;DHT22;3541;53.230;10.518;2023-04-09T03:16:00;8.10;99.90
7002;DHT22;3541;53.230;10.518;2023-04-09T03:18:26;8.10;99.90
7002;DHT22;3541;53.230;10.518;2023-04-09T03:20:53;8.10;99.90
7002;DHT22;3541;53.230;10.518;2023-04-09T03:23:19;8.10;99.90
7002;DHT22;3541;53.230;10.518;2023-04-09T03:25:46;8.00;99.90
7002;DHT22;3541;53.230;10.518;2023-04-09T03:28:14;8.00;99.90
7002;DHT22;3541;53.230;10.518;2023-04-09T03:30:40;8.10;99.90
7002;DHT22;3541;53.230;10.518;2023-04-09T03:33:07;8.10;99.90
7002;DHT22;3541;53.230;10.518;2023-04-09T03:35:33;8.10;99.90
7002;DHT22;3541;53.230;10.518;2023-04-09T03:38:00;8.00;99.90
7002;DHT22;3541;53.230;10.518;2023-04-09T03:40:27;8.00;99.90
7002;DHT22;3541;53.230;10.518;2023-04-09T03:42:53;8.00;99.90
7002;DHT22;3541;53.230;10.518;2023-04-09T03:45:21;8.00;99.90
7002;DHT22;3541;53.230;10.518;2023-04-09T03:47:47;8.00;99.90
7002;DHT22;3541;53.230;10.518;2023-04-09T03:50:14;8.00;99.90
7002;DHT22;3541;53.230;10.518;2023-04-09T03:52:41;8.00;99.90
7002;DHT22;3541;53.230;10.518;2023-04-09T03:55:08;8.00;99.90
7002;DHT22;3541;53.230;10.518;2023-04-09T03:57:35;8.00;99.90
7002;DHT22;3541;53.230;10.518;2023-04-09T04:00:02;8.00;99.90
7002;DHT22;3541;53.230;10.518;2023-04-09T04:02:30;8.00;99.90
7002;DHT22;3541;53.230;10.518;2023-04-09T04:04:57;7.90;99.90
7002;DHT22;3541;53.230;10.518;2023-04-09T04:07:24;8.00;99.90
7002;DHT22;3541;53.230;10.518;2023-04-09T04:09:51;8.00;99.90
7002;DHT22;3541;53.230;10.518;2023-04-09T04:12:18;8.00;99.90
7002;DHT22;3541;53.230;10.518;2023-04-09T04:14:44;8.00;99.90
7002;DHT22;3541;53.230;10.518;2023-04-09T04:17:11;8.00;99.90
7002;DHT22;3541;53.230;10.518;2023-04-09T04:19:39;7.90;99.90
7002;DHT22;3541;53.230;10.518;2023-04-09T04:22:05;8.00;99.90
7002;DHT22;3541;53.230;10.518;2023-04-09T04:24:32;8.00;99.90
7002;DHT22;3541;53.230;10.518;2023-04-09T04:26:58;8.00;99.90
7002;DHT22;3541;53.230;10.518;2023-04-09T04:29:26;8.00;99.90
7002;DHT22;3541;53.230;10.518;2023-04-09T04:31:52;8.00;99.90
7002;DHT22;3541;53.230;10.518;2023-04-09T04:34:19;8.00;99.90
7002;DHT22;3541;53.230;10.518;2023-04-09T04:36:47;8.00;99.90
7002;DHT22;3541;53.230;10.518;2023-04-09T04:39:14;8.00;99.90
7002;DHT22;3541;53.230;10.518;2023-04-09T04:41:40;8.00;99.90
7002;DHT22;3541;53.230;10.518;2023-04-09T04:44:07;8.00;99.90
7002;DHT22;3541;53.230;10.518;2023-04-09T04:46:33;7.90;99.90
7002;DHT22;3541;53.230;10.518;2023-04-09T04:49:00;8.00;99.90
7002;DHT22;3541;53.230;10.518;2023-04-09T04:51:29;8.00;99.90
7002;DHT22;3541;53.230;10.518;2023-04-09T04:53:57;8.00;99.90
7002;DHT22;3541;53.230;10.518;2023-04-09T04:56:24;8.00;99.90
7002;DHT22;3541;53.230;10.518;2023-04-09T04:58:50;7.90;99.90
7002;DHT22;3541;53.230;10.518;2023-04-09T05:01:17;7.90;99.90
7002;DHT22;3541;53.230;10.518;2023-04-09T05:03:43;7.90;99.90
7002;DHT22;3541;53.230;10.518;2023-04-09T05:06:10;8.00;99.90
7002;DHT22;3541;53.230;10.518;2023-04-09T05:08:36;7.90;99.90
7002;DHT22;3541;53.230;10.518;2023-04-09T05:11:04;7.90;99.90
7002;DHT22;3541;53.230;10.518;2023-04-09T05:13:31;7.90;99.90
7002;DHT22;3541;53.230;10.518;2023-04-09T05:15:58;7.90;99.90
7002;DHT22;3541;53.230;10.518;2023-04-09T05:18:24;7.90;99.90
7002;DHT22;3541;53.230;10.518;2023-04-09T05:20:51;7.90;99.90
7002;DHT22;3541;53.230;10.518;2023-04-09T05:23:18;7.90;99.90
7002;DHT22;3541;53.230;10.518;2023-04-09T05:25:45;7.90;99.90
7002;DHT22;3541;53.230;10.518;2023-04-09T05:28:14;7.90;99.90
7002;DHT22;3541;53.230;10.518;2023-04-09T05:30:45;7.90;99.90
7002;DHT22;3541;53.230;10.518;2023-04-09T05:33:11;7.90;99.90
7002;DHT22;3541;53.230;10.518;2023-04-09T05:35:38;7.90;99.90
7002;DHT22;3541;53.230;10.518;2023-04-09T05:38:04;7.90;99.90
7002;DHT22;3541;53.230;10.518;2023-04-09T05:40:31;7.90;99.90
7002;DHT22;3541;53.230;10.518;2023-04-09T05:42:58;7.90;99.90
7002;DHT22;3541;53.230;10.518;2023-04-09T05:45:26;8.00;99.90
7002;DHT22;3541;53.230;10.518;2023-04-09T05:47:53;7.90;99.90
7002;DHT22;3541;53.230;10.518;2023-04-09T05:50:20;7.90;99.90
7002;DHT22;3541;53.230;10.518;2023-04-09T05:52:46;7.90;99.90
7002;DHT22;3541;53.230;10.518;2023-04-09T05:55:13;8.00;99.90
7002;DHT22;3541;53.230;10.518;2023-04-09T05:57:40;8.00;99.90
7002;DHT22;3541;53.230;10.518;2023-04-09T06:00:08;7.90;99.90
7002;DHT22;3541;53.230;10.518;2023-04-09T06:02:36;7.90;99.90
7002;DHT22;3541;53.230;10.518;2023-04-09T06:05:03;7.90;99.90
7002;DHT22;3541;53.230;10.518;2023-04-09T06:07:30;8.00;99.90
7002;DHT22;3541;53.230;10.518;2023-04-09T06:09:56;8.00;99.90
7002;DHT22;3541;53.230;10.518;2023-04-09T06:12:23;8.00;99.90
7002;DHT22;3541;53.230;10.518;2023-04-09T06:14:50;8.00;99.90
7002;DHT22;3541;53.230;10.518;2023-04-09T06:17:16;8.00;99.90
7002;DHT22;3541;53.230;10.518;2023-04-09T06:19:44;8.00;99.90
7002;DHT22;3541;53.230;10.518;2023-04-09T06:22:10;8.10;99.90
7002;DHT22;3541;53.230;10.518;2023-04-09T06:24:37;8.10;99.90
7002;DHT22;3541;53.230;10.518;2023-04-09T06:27:04;8.10;99.90
7002;DHT22;3541;53.230;10.518;2023-04-09T06:29:31;8.10;99.90
7002;DHT22;3541;53.230;10.518;2023-04-09T06:31:57;8.10;99.90
7002;DHT22;3541;53.230;10.518;2023-04-09T06:34:24;8.10;99.90
7002;DHT22;3541;53.230;10.518;2023-04-09T06:36:52;8.10;99.90
7002;DHT22;3541;53.230;10.518;2023-04-09T06:39:19;8.10;99.90
7002;DHT22;3541;53.230;10.518;2023-04-09T06:41:46;8.10;99.90
7002;DHT22;3541;53.230;10.518;2023-04-09T06:44:12;8.10;99.90
7002;DHT22;3541;53.230;10.518;2023-04-09T06:46:39;8.10;99.90
7002;DHT22;3541;53.230;10.518;2023-04-09T06:49:06;8.10;99.90
7002;DHT22;3541;53.230;10.518;2023-04-09T06:51:33;8.10;99.90
7002;DHT22;3541;53.230;10.518;2023-04-09T06:54:01;8.20;99.90
7002;DHT22;3541;53.230;10.518;2023-04-09T06:56:27;8.10;99.90
7002;DHT22;3541;53.230;10.518;2023-04-09T06:58:54;8.10;99.90
7002;DHT22;3541;53.230;10.518;2023-04-09T07:01:20;8.20;99.90
7002;DHT22;3541;53.230;10.518;2023-04-09T07:03:47;8.20;99.90
7002;DHT22;3541;53.230;10.518;2023-04-09T07:06:13;8.30;99.90
7002;DHT22;3541;53.230;10.518;2023-04-09T07:08:40;8.30;99.90
7002;DHT22;3541;53.230;10.518;2023-04-09T07:11:08;8.40;99.90
7002;DHT22;3541;53.230;10.518;2023-04-09T07:13:35;8.30;99.90
7002;DHT22;3541;53.230;10.518;2023-04-09T07:16:01;8.20;99.90
7002;DHT22;3541;53.230;10.518;2023-04-09T07:18:29;8.30;99.90
7002;DHT22;3541;53.230;10.518;2023-04-09T07:20:56;8.40;99.90
7002;DHT22;3541;53.230;10.518;2023-04-09T07:23:22;8.40;99.90
7002;DHT22;3541;53.230;10.518;2023-04-09T07:25:49;8.50;99.90
7002;DHT22;3541;53.230;10.518;2023-04-09T07:28:17;8.50;99.90
7002;DHT22;3541;53.230;10.518;2023-04-09T07:30:43;8.50;99.90
7002;DHT22;3541;53.230;10.518;2023-04-09T07:33:11;8.60;99.90
7002;DHT22;3541;53.230;10.518;2023-04-09T07:35:37;8.60;99.90
7002;DHT22;3541;53.230;10.518;2023-04-09T07:38:04;8.60;99.90
7002;DHT22;3541;53.230;10.518;2023-04-09T07:40:32;8.60;99.90
7002;DHT22;3541;53.230;10.518;2023-04-09T07:42:59;8.60;99.90
7002;DHT22;3541;53.230;10.518;2023-04-09T07:45:27;8.60;99.90
7002;DHT22;3541;53.230;10.518;2023-04-09T07:47:54;8.70;99.90
7002;DHT22;3541;53.230;10.518;2023-04-09T07:50:21;8.70;99.90
7002;DHT22;3541;53.230;10.518;2023-04-09T07:52:47;8.70;99.90
7002;DHT22;3541;53.230;10.518;2023-04-09T07:55:14;8.70;99.90
7002;DHT22;3541;53.230;10.518;2023-04-09T07:57:40;8.70;99.90
7002;DHT22;3541;53.230;10.518;2023-04-09T08:00:10;8.80;99.90
7002;DHT22;3541;53.230;10.518;2023-04-09T08:02:38;8.80;99.90
7002;DHT22;3541;53.230;10.518;2023-04-09T08:05:05;8.90;99.90
7002;DHT22;3541;53.230;10.518;2023-04-09T08:07:32;8.90;99.90
7002;DHT22;3541;53.230;10.518;2023-04-09T08:09:59;8.90;99.90
7002;DHT22;3541;53.230;10.518;2023-04-09T08:12:25;8.90;99.90
7002;DHT22;3541;53.230;10.518;2023-04-09T08:14:52;8.90;99.90
7002;DHT22;3541;53.230;10.518;2023-04-09T08:17:19;9.00;99.90
7002;DHT22;3541;53.230;10.518;2023-04-09T08:19:47;9.00;99.90
7002;DHT22;3541;53.230;10.518;2023-04-09T08:22:14;9.00;99.90
7002;DHT22;3541;53.230;10.518;2023-04-09T08:24:41;9.00;99.90
7002;DHT22;3541;53.230;10.518;2023-04-09T08:27:08;8.90;99.90
7002;DHT22;3541;53.230;10.518;2023-04-09T08:29:35;8.90;99.90
7002;DHT22;3541;53.230;10.518;2023-04-09T08:32:03;9.00;99.90
7002;DHT22;3541;53.230;10.518;2023-04-09T08:34:29;9.00;99.90
7002;DHT22;3541;53.230;10.518;2023-04-09T08:36:57;9.00;99.90
7002;DHT22;3541;53.230;10.518;2023-04-09T08:39:24;9.10;99.90
7002;DHT22;3541;53.230;10.518;2023-04-09T08:41:51;9.10;99.90
7002;DHT22;3541;53.230;10.518;2023-04-09T08:44:17;9.20;99.90
7002;DHT22;3541;53.230;10.518;2023-04-09T08:46:47;9.20;99.90
7002;DHT22;3541;53.230;10.518;2023-04-09T08:49:14;9.30;99.90
7002;DHT22;3541;53.230;10.518;2023-04-09T08:51:44;9.20;99.90
7002;DHT22;3541;53.230;10.518;2023-04-09T08:54:13;9.30;99.90
7002;DHT22;3541;53.230;10.518;2023-04-09T08:56:41;9.40;99.90
7002;DHT22;3541;53.230;10.518;2023-04-09T08:59:08;9.40;99.90
7002;DHT22;3541;53.230;10.518;2023-04-09T09:01:34;9.50;99.90
7002;DHT22;3541;53.230;10.518;2023-04-09T09:04:03;9.50;99.90
7002;DHT22;3541;53.230;10.518;2023-04-09T09:06:31;9.50;99.90
7002;DHT22;3541;53.230;10.518;2023-04-09T09:09:00;9.50;99.90
7002;DHT22;3541;53.230;10.518;2023-04-09T09:11:28;9.50;99.90
7002;DHT22;3541;53.230;10.518;2023-04-09T09:14:00;9.50;99.90
7002;DHT22;3541;53.230;10.518;2023-04-09T09:16:26;9.40;99.90
7002;DHT22;3541;53.230;10.518;2023-04-09T09:18:53;9.50;99.90
7002;DHT22;3541;53.230;10.518;2023-04-09T09:21:21;9.50;99.90
7002;DHT22;3541;53.230;10.518;2023-04-09T09:23:48;9.50;99.90
7002;DHT22;3541;53.230;10.518;2023-04-09T09:26:17;9.60;99.90
7002;DHT22;3541;53.230;10.518;2023-04-09T09:28:46;9.60;99.90
7002;DHT22;3541;53.230;10.518;2023-04-09T09:31:14;9.60;99.90
7002;DHT22;3541;53.230;10.518;2023-04-09T09:33:41;9.60;99.90
7002;DHT22;3541;53.230;10.518;2023-04-09T09:36:08;9.70;99.90
7002;DHT22;3541;53.230;10.518;2023-04-09T09:38:50;9.80;99.90
7002;DHT22;3541;53.230;10.518;2023-04-09T09:41:18;9.80;99.90
7002;DHT22;3541;53.230;10.518;2023-04-09T09:43:46;9.80;99.90
7002;DHT22;3541;53.230;10.518;2023-04-09T09:46:14;9.90;99.90
7002;DHT22;3541;53.230;10.518;2023-04-09T09:48:41;10.00;99.90
7002;DHT22;3541;53.230;10.518;2023-04-09T09:51:09;10.10;99.90
7002;DHT22;3541;53.230;10.518;2023-04-09T09:53:37;10.20;99.90
7002;DHT22;3541;53.230;10.518;2023-04-09T09:56:05;10.20;99.90
7002;DHT22;3541;53.230;10.518;2023-04-09T09:58:35;10.20;99.90
7002;DHT22;3541;53.230;10.518;2023-04-09T10:01:07;10.20;99.90
7002;DHT22;3541;53.230;10.518;2023-04-09T10:03:38;10.30;99.90
7002;DHT22;3541;53.230;10.518;2023-04-09T10:06:05;10.40;99.90
7002;DHT22;3541;53.230;10.518;2023-04-09T10:08:32;10.40;99.90
7002;DHT22;3541;53.230;10.518;2023-04-09T10:11:02;10.40;99.90
7002;DHT22;3541;53.230;10.518;2023-04-09T10:13:33;10.50;99.90
7002;DHT22;3541;53.230;10.518;2023-04-09T10:16:00;10.50;99.90
7002;DHT22;3541;53.230;10.518;2023-04-09T10:18:29;10.50;99.90
7002;DHT22;3541;53.230;10.518;2023-04-09T10:21:00;10.50;99.90
7002;DHT22;3541;53.230;10.518;2023-04-09T10:23:32;10.60;99.90
7002;DHT22;3541;53.230;10.518;2023-04-09T10:26:01;10.70;99.90
7002;DHT22;3541;53.230;10.518;2023-04-09T10:28:28;10.80;99.90
7002;DHT22;3541;53.230;10.518;2023-04-09T10:30:55;10.80;99.90
7002;DHT22;3541;53.230;10.518;2023-04-09T10:33:24;10.90;99.90
7002;DHT22;3541;53.230;10.518;2023-04-09T10:35:54;11.00;99.90
7002;DHT22;3541;53.230;10.518;2023-04-09T10:38:34;11.10;99.90
7002;DHT22;3541;53.230;10.518;2023-04-09T10:41:11;11.10;99.90
7002;DHT22;3541;53.230;10.518;2023-04-09T10:43:39;11.20;99.90
7002;DHT22;3541;53.230;10.518;2023-04-09T10:46:08;11.10;99.90
7002;DHT22;3541;53.230;10.518;2023-04-09T10:49:06;11.10;99.90
7002;DHT22;3541;53.230;10.518;2023-04-09T10:51:35;11.20;99.90
7002;DHT22;3541;53.230;10.518;2023-04-09T10:54:03;11.50;99.90
7002;DHT22;3541;53.230;10.518;2023-04-09T10:56:30;11.80;99.90
7002;DHT22;3541;53.230;10.518;2023-04-09T10:58:56;11.80;99.90
7002;DHT22;3541;53.230;10.518;2023-04-09T11:01:23;12.00;99.90
7002;DHT22;3541;53.230;10.518;2023-04-09T11:04:07;11.90;99.90
7002;DHT22;3541;53.230;10.518;2023-04-09T11:06:37;11.80;99.90
7002;DHT22;3541;53.230;10.518;2023-04-09T11:09:05;11.60;99.90
7002;DHT22;3541;53.230;10.518;2023-04-09T11:11:32;11.80;99.90
7002;DHT22;3541;53.230;10.518;2023-04-09T11:14:00;11.90;99.90
7002;DHT22;3541;53.230;10.518;2023-04-09T11:16:28;12.10;99.90
7002;DHT22;3541;53.230;10.518;2023-04-09T11:18:55;12.20;99.90
7002;DHT22;3541;53.230;10.518;2023-04-09T11:21:25;12.30;99.90
7002;DHT22;3541;53.230;10.518;2023-04-09T11:23:54;12.20;99.90
7002;DHT22;3541;53.230;10.518;2023-04-09T11:26:24;12.10;99.90
7002;DHT22;3541;53.230;10.518;2023-04-09T11:28:55;12.10;99.90
7002;DHT22;3541;53.230;10.518;2023-04-09T11:31:26;12.40;99.90
7002;DHT22;3541;53.230;10.518;2023-04-09T11:33:54;12.50;99.90
7002;DHT22;3541;53.230;10.518;2023-04-09T11:36:21;12.50;99.90
7002;DHT22;3541;53.230;10.518;2023-04-09T11:38:47;12.80;99.90
7002;DHT22;3541;53.230;10.518;2023-04-09T11:41:16;13.00;99.90
7002;DHT22;3541;53.230;10.518;2023-04-09T11:43:42;13.10;99.90
7002;DHT22;3541;53.230;10.518;2023-04-09T11:46:09;13.20;99.90
7002;DHT22;3541;53.230;10.518;2023-04-09T11:48:35;13.30;99.90
7002;DHT22;3541;53.230;10.518;2023-04-09T11:51:02;13.50;99.90
7002;DHT22;3541;53.230;10.518;2023-04-09T11:53:30;13.60;99.90
7002;DHT22;3541;53.230;10.518;2023-04-09T11:55:56;13.60;99.90
7002;DHT22;3541;53.230;10.518;2023-04-09T11:58:25;13.80;99.90
7002;DHT22;3541;53.230;10.518;2023-04-09T12:00:52;13.90;99.90
7002;DHT22;3541;53.230;10.518;2023-04-09T12:03:27;13.90;99.90
7002;DHT22;3541;53.230;10.518;2023-04-09T12:05:54;13.80;99.90
7002;DHT22;3541;53.230;10.518;2023-04-09T12:08:22;13.60;99.90
7002;DHT22;3541;53.230;10.518;2023-04-09T12:10:49;13.50;99.90
7002;DHT22;3541;53.230;10.518;2023-04-09T12:13:15;13.40;99.90
7002;DHT22;3541;53.230;10.518;2023-04-09T12:15:44;13.50;99.90
7002;DHT22;3541;53.230;10.518;2023-04-09T12:18:13;13.70;99.90
7002;DHT22;3541;53.230;10.518;2023-04-09T12:20:41;14.00;99.90
7002;DHT22;3541;53.230;10.518;2023-04-09T12:23:09;14.20;99.90
7002;DHT22;3541;53.230;10.518;2023-04-09T12:25:37;14.40;99.90
7002;DHT22;3541;53.230;10.518;2023-04-09T12:28:05;14.50;99.90
7002;DHT22;3541;53.230;10.518;2023-04-09T12:30:32;14.40;99.90
7002;DHT22;3541;53.230;10.518;2023-04-09T12:33:01;14.60;99.90
7002;DHT22;3541;53.230;10.518;2023-04-09T12:35:28;14.70;99.90
7002;DHT22;3541;53.230;10.518;2023-04-09T12:37:55;14.70;99.90
7002;DHT22;3541;53.230;10.518;2023-04-09T12:40:21;14.80;99.90
7002;DHT22;3541;53.230;10.518;2023-04-09T12:42:48;14.90;99.90
7002;DHT22;3541;53.230;10.518;2023-04-09T12:45:16;15.10;99.90
7002;DHT22;3541;53.230;10.518;2023-04-09T12:47:43;15.30;99.90
7002;DHT22;3541;53.230;10.518;2023-04-09T12:50:13;15.30;99.90
7002;DHT22;3541;53.230;10.518;2023-04-09T12:52:40;15.40;99.90
7002;DHT22;3541;53.230;10.518;2023-04-09T12:55:08;15.40;99.90
7002;DHT22;3541;53.230;10.518;2023-04-09T12:57:36;15.40;99.90
7002;DHT22;3541;53.230;10.518;2023-04-09T13:00:03;15.60;99.90
7002;DHT22;3541;53.230;10.518;2023-04-09T13:02:30;15.70;99.90
7002;DHT22;3541;53.230;10.518;2023-04-09T13:04:57;15.70;99.90
7002;DHT22;3541;53.230;10.518;2023-04-09T13:07:24;15.60;99.90
7002;DHT22;3541;53.230;10.518;2023-04-09T13:09:53;15.70;99.90
7002;DHT22;3541;53.230;10.518;2023-04-09T13:12:20;15.70;99.90
7002;DHT22;3541;53.230;10.518;2023-04-09T13:14:49;15.70;99.90
7002;DHT22;3541;53.230;10.518;2023-04-09T13:17:16;15.80;99.90
7002;DHT22;3541;53.230;10.518;2023-04-09T13:19:43;15.90;99.90
7002;DHT22;3541;53.230;10.518;2023-04-09T13:22:10;15.90;99.90
7002;DHT22;3541;53.230;10.518;2023-04-09T13:24:38;16.10;99.90
7002;DHT22;3541;53.230;10.518;2023-04-09T13:27:05;16.30;99.90
7002;DHT22;3541;53.230;10.518;2023-04-09T13:29:33;16.40;99.90
7002;DHT22;3541;53.230;10.518;2023-04-09T13:32:00;16.50;99.90
7002;DHT22;3541;53.230;10.518;2023-04-09T13:34:31;16.60;99.90
7002;DHT22;3541;53.230;10.518;2023-04-09T13:36:58;16.70;99.90
7002;DHT22;3541;53.230;10.518;2023-04-09T13:39:24;16.60;99.90
7002;DHT22;3541;53.230;10.518;2023-04-09T13:41:52;16.40;99.90
7002;DHT22;3541;53.230;10.518;2023-04-09T13:44:20;16.10;99.90
7002;DHT22;3541;53.230;10.518;2023-04-09T13:46:47;16.00;99.90
7002;DHT22;3541;53.230;10.518;2023-04-09T13:49:13;16.10;99.90
7002;DHT22;3541;53.230;10.518;2023-04-09T13:51:40;16.30;99.90
7002;DHT22;3541;53.230;10.518;2023-04-09T13:54:07;16.50;99.90
7002;DHT22;3541;53.230;10.518;2023-04-09T13:56:35;16.50;99.90
7002;DHT22;3541;53.230;10.518;2023-04-09T13:59:03;16.80;99.90
7002;DHT22;3541;53.230;10.518;2023-04-09T14:01:30;17.00;99.90
7002;DHT22;3541;53.230;10.518;2023-04-09T14:03:57;17.10;99.90
7002;DHT22;3541;53.230;10.518;2023-04-09T14:06:24;17.30;99.90
7002;DHT22;3541;53.230;10.518;2023-04-09T14:08:50;17.50;99.90
7002;DHT22;3541;53.230;10.518;2023-04-09T14:11:17;17.60;99.90
7002;DHT22;3541;53.230;10.518;2023-04-09T14:13:44;17.80;99.90
7002;DHT22;3541;53.230;10.518;2023-04-09T14:16:12;17.50;99.90
7002;DHT22;3541;53.230;10.518;2023-04-09T14:18:39;17.40;99.90
7002;DHT22;3541;53.230;10.518;2023-04-09T14:21:06;17.20;99.90
7002;DHT22;3541;53.230;10.518;2023-04-09T14:23:33;17.00;99.90
7002;DHT22;3541;53.230;10.518;2023-04-09T14:26:00;17.20;99.90
7002;DHT22;3541;53.230;10.518;2023-04-09T14:28:27;17.40;99.90
7002;DHT22;3541;53.230;10.518;2023-04-09T14:30:53;17.40;99.90
7002;DHT22;3541;53.230;10.518;2023-04-09T14:33:21;17.10;99.90
7002;DHT22;3541;53.230;10.518;2023-04-09T14:35:48;16.70;99.90
7002;DHT22;3541;53.230;10.518;2023-04-09T14:38:15;16.50;99.90
7002;DHT22;3541;53.230;10.518;2023-04-09T14:40:42;16.30;99.90
7002;DHT22;3541;53.230;10.518;2023-04-09T14:43:09;16.40;99.90
7002;DHT22;3541;53.230;10.518;2023-04-09T14:45:35;16.60;99.90
7002;DHT22;3541;53.230;10.518;2023-04-09T14:48:02;16.50;99.90
7002;DHT22;3541;53.230;10.518;2023-04-09T14:50:30;16.30;99.90
7002;DHT22;3541;53.230;10.518;2023-04-09T14:52:58;16.20;99.90
7002;DHT22;3541;53.230;10.518;2023-04-09T14:55:25;16.30;99.90
7002;DHT22;3541;53.230;10.518;2023-04-09T14:57:51;16.60;99.90
7002;DHT22;3541;53.230;10.518;2023-04-09T15:00:18;16.50;99.90
7002;DHT22;3541;53.230;10.518;2023-04-09T15:02:45;16.10;99.90
7002;DHT22;3541;53.230;10.518;2023-04-09T15:05:12;16.00;99.90
7002;DHT22;3541;53.230;10.518;2023-04-09T15:07:40;15.90;99.90
7002;DHT22;3541;53.230;10.518;2023-04-09T15:10:08;15.90;99.90
7002;DHT22;3541;53.230;10.518;2023-04-09T15:12:35;16.20;99.90
7002;DHT22;3541;53.230;10.518;2023-04-09T15:15:04;16.70;99.90
7002;DHT22;3541;53.230;10.518;2023-04-09T15:17:31;16.90;99.90
7002;DHT22;3541;53.230;10.518;2023-04-09T15:19:58;17.20;99.90
7002;DHT22;3541;53.230;10.518;2023-04-09T15:22:24;17.40;99.90
7002;DHT22;3541;53.230;10.518;2023-04-09T15:24:52;17.70;99.90
7002;DHT22;3541;53.230;10.518;2023-04-09T15:27:19;17.80;99.90
7002;DHT22;3541;53.230;10.518;2023-04-09T15:29:46;17.90;99.90
7002;DHT22;3541;53.230;10.518;2023-04-09T15:32:13;17.90;99.90
7002;DHT22;3541;53.230;10.518;2023-04-09T15:34:39;18.00;99.90
7002;DHT22;3541;53.230;10.518;2023-04-09T15:37:06;18.10;99.90
7002;DHT22;3541;53.230;10.518;2023-04-09T15:39:32;18.00;99.90
7002;DHT22;3541;53.230;10.518;2023-04-09T15:42:01;18.10;99.90
7002;DHT22;3541;53.230;10.518;2023-04-09T15:44:27;18.10;99.90
7002;DHT22;3541;53.230;10.518;2023-04-09T15:46:54;18.20;99.90
7002;DHT22;3541;53.230;10.518;2023-04-09T15:49:21;18.40;99.90
7002;DHT22;3541;53.230;10.518;2023-04-09T15:51:48;18.50;99.90
7002;DHT22;3541;53.230;10.518;2023-04-09T15:54:14;18.50;99.90
7002;DHT22;3541;53.230;10.518;2023-04-09T15:56:41;18.40;99.90